Time;durP1;ratioP1;P1;durP2;ratioP2;P2;SDS_P1;SDS_P2;PMS_P1;PMS_P2;Temp;Humidity;BMP_temperature;BMP_pressure;BME280_temperature;BME280_humidity;BME280_pressure;Samples;Min_cycle;Max_cycle;Signal;HPM_P1;HPM_P2
2023/01/03 00:02:26;;;;;;;2.30;1.42;;;;;;;11.67;64.53;97708.06;6137933;23;20178;-78
2023/01/03 00:04:53;;;;;;;0.95;0.80;;;;;;;11.64;65.02;97703.19;6138091;23;20026;-80
2023/01/03 00:07:33;;;;;;;1.73;1.00;;;;;;;11.63;65.78;97696.28;6138808;23;20029;-78
2023/01/03 00:10:05;;;;;;;1.10;1.00;;;;;;;11.64;67.10;97705.78;6133846;23;20057;-78
2023/01/03 00:12:32;;;;;;;0.82;0.73;;;;;;;11.64;66.73;97708.41;6134047;23;20057;-76
2023/01/03 00:15:00;;;;;;;1.20;1.10;;;;;;;11.63;66.02;97714.59;6133621;23;20021;-78
2023/01/03 00:17:28;;;;;;;1.25;1.17;;;;;;;11.60;65.00;97726.19;6133365;23;20025;-76
2023/01/03 00:19:55;;;;;;;0.95;0.70;;;;;;;11.59;65.73;97721.97;6134277;23;20053;-76
2023/01/03 00:22:23;;;;;;;1.10;1.00;;;;;;;11.58;64.36;97716.88;6133869;23;20029;-77
2023/01/03 00:24:52;;;;;;;1.15;1.10;;;;;;;11.54;64.06;97714.59;6133095;23;20069;-77
2023/01/03 00:27:21;;;;;;;1.23;0.90;;;;;;;11.54;64.97;97724.22;6134133;23;20032;-77
2023/01/03 00:29:49;;;;;;;1.10;1.00;;;;;;;11.52;64.89;97729.63;6131424;23;20028;-76
2023/01/03 00:32:17;;;;;;;0.90;0.90;;;;;;;11.51;65.49;97725.34;6131538;23;20029;-79
2023/01/03 00:34:45;;;;;;;0.80;0.80;;;;;;;11.49;64.24;97719.47;6132620;23;20026;-77
2023/01/03 00:37:14;;;;;;;1.08;0.98;;;;;;;11.47;64.66;97712.78;6132619;23;20022;-77
2023/01/03 00:39:43;;;;;;;1.23;1.15;;;;;;;11.48;65.21;97730.09;6131819;23;20028;-79
2023/01/03 00:42:11;;;;;;;0.98;0.98;;;;;;;11.47;65.63;97734.47;6132471;23;20025;-78
2023/01/03 00:44:40;;;;;;;1.20;1.10;;;;;;;11.47;65.37;97728.44;6131835;23;20093;-79
2023/01/03 00:47:08;;;;;;;1.13;1.02;;;;;;;11.47;64.87;97731.06;6132830;23;20022;-77
2023/01/03 00:49:35;;;;;;;1.83;1.00;;;;;;;11.42;63.88;97726.31;6132659;23;20109;-77
2023/01/03 00:52:03;;;;;;;1.65;0.98;;;;;;;11.42;64.85;97742.00;6133026;23;20022;-78
2023/01/03 00:54:31;;;;;;;1.65;0.90;;;;;;;11.41;64.89;97742.94;6132643;23;20033;-78
2023/01/03 00:56:58;;;;;;;1.20;1.10;;;;;;;11.40;64.96;97738.72;6132815;23;20038;-77
2023/01/03 00:59:26;;;;;;;1.08;0.95;;;;;;;11.38;63.78;97730.22;6132545;23;20022;-77
2023/01/03 01:01:57;;;;;;;0.95;0.95;;;;;;;11.35;63.48;97722.72;6131566;23;20028;-78
2023/01/03 01:04:27;;;;;;;1.00;1.00;;;;;;;11.34;64.00;97726.28;6132840;23;20026;-78
2023/01/03 01:06:57;;;;;;;1.88;0.93;;;;;;;11.32;63.97;97728.25;6133591;23;20029;-78
2023/01/03 01:09:27;;;;;;;1.55;1.00;;;;;;;11.30;64.47;97727.56;6132992;23;20020;-77
2023/01/03 01:11:55;;;;;;;1.02;0.98;;;;;;;11.30;64.32;97736.25;6132926;23;20026;-78
2023/01/03 01:14:25;;;;;;;1.90;1.10;;;;;;;11.29;63.94;97741.63;6132935;23;20096;-78
2023/01/03 01:16:55;;;;;;;1.00;0.90;;;;;;;11.27;64.14;97740.97;6132962;23;20077;-78
2023/01/03 01:19:25;;;;;;;1.52;1.05;;;;;;;11.25;64.24;97741.13;6132639;23;20022;-77
2023/01/03 01:21:53;;;;;;;2.67;1.08;;;;;;;11.24;64.20;97738.66;6132722;23;20026;-78
2023/01/03 01:24:21;;;;;;;1.08;0.98;;;;;;;11.24;64.18;97741.25;6132698;23;20022;-79
2023/01/03 01:26:50;;;;;;;1.27;1.00;;;;;;;11.21;63.75;97731.13;6131864;23;20415;-77
2023/01/03 01:29:18;;;;;;;1.30;1.20;;;;;;;11.20;64.83;97732.13;6134012;23;20018;-78
2023/01/03 01:31:47;;;;;;;1.92;1.27;;;;;;;11.19;64.54;97735.69;6132294;23;20358;-77
2023/01/03 01:34:16;;;;;;;1.80;1.25;;;;;;;11.18;64.80;97740.13;6126203;23;20018;-79
2023/01/03 01:36:45;;;;;;;1.60;1.00;;;;;;;11.16;64.68;97747.28;6126079;23;20024;-79
2023/01/03 01:39:15;;;;;;;0.88;0.88;;;;;;;11.17;65.02;97748.09;6125325;23;20018;-79
2023/01/03 01:44:52;;;;;;;3.65;1.20;;;;;;;11.15;64.54;97748.28;6125771;23;20046;-79
2023/01/03 01:47:27;;;;;;;1.48;0.98;;;;;;;11.10;64.64;97743.50;6125379;23;20108;-79
2023/01/03 01:50:01;;;;;;;1.27;1.20;;;;;;;11.05;63.48;97745.78;6125810;23;20029;-79
2023/01/03 01:52:30;;;;;;;1.30;1.20;;;;;;;11.02;63.54;97735.66;6125331;23;20024;-79
2023/01/03 01:54:59;;;;;;;0.93;0.88;;;;;;;10.98;63.68;97744.75;6125526;23;20025;-79
2023/01/03 01:57:27;;;;;;;1.25;0.90;;;;;;;10.94;63.51;97748.66;6125997;23;20077;-79
2023/01/03 01:59:54;;;;;;;1.20;1.10;;;;;;;10.92;63.72;97755.81;6124878;23;20017;-79
2023/01/03 02:02:23;;;;;;;0.75;0.75;;;;;;;10.86;62.99;97754.63;6124807;23;20032;-80
2023/01/03 02:04:53;;;;;;;1.30;1.20;;;;;;;10.79;63.21;97750.22;6123396;23;20026;-79
2023/01/03 02:07:23;;;;;;;0.80;0.80;;;;;;;10.75;63.05;97754.91;6123415;23;20226;-80
2023/01/03 02:09:55;;;;;;;1.35;0.95;;;;;;;10.70;63.27;97751.94;6124693;23;20109;-79
2023/01/03 02:15:25;;;;;;;1.48;1.20;;;;;;;10.60;63.46;97739.00;6125278;23;20097;-80
2023/01/03 02:18:11;;;;;;;1.50;1.00;;;;;;;10.55;63.26;97733.44;6125272;23;20025;-80
2023/01/03 02:20:59;;;;;;;2.92;1.50;;;;;;;10.51;63.54;97742.53;6125154;23;20026;-80
2023/01/03 02:24:12;;;;;;;1.10;1.00;;;;;;;10.47;63.08;97742.03;6125550;23;20022;-80
2023/01/03 02:26:55;;;;;;;1.15;0.90;;;;;;;10.42;63.50;97746.06;6125638;23;20368;-79
2023/01/03 02:29:54;;;;;;;0.90;0.90;;;;;;;10.40;63.79;97755.81;6125426;23;20454;-80
2023/01/03 02:32:36;;;;;;;1.30;1.20;;;;;;;10.41;64.54;97752.25;6126189;23;20022;-79
2023/01/03 02:35:08;;;;;;;1.13;1.00;;;;;;;10.43;65.15;97755.50;6126249;23;20074;-80
2023/01/03 02:37:42;;;;;;;1.40;0.90;;;;;;;10.45;64.77;97762.25;6125131;23;20020;-79
2023/01/03 02:40:18;;;;;;;0.95;0.90;;;;;;;10.46;65.57;97756.03;6125432;23;20026;-79
2023/01/03 02:43:00;;;;;;;1.30;1.20;;;;;;;10.47;65.25;97756.84;6125440;23;20054;-80
2023/01/03 02:45:45;;;;;;;1.10;1.10;;;;;;;10.47;64.78;97747.25;6124410;23;20033;-79
2023/01/03 02:48:18;;;;;;;1.27;1.17;;;;;;;10.44;64.05;97752.75;6125764;23;20018;-80
2023/01/03 02:50:49;;;;;;;1.30;1.20;;;;;;;10.39;63.84;97752.41;6126022;23;20394;-79
2023/01/03 02:53:24;;;;;;;1.63;0.95;;;;;;;10.36;64.00;97754.47;6126324;23;20022;-79
2023/01/03 02:55:58;;;;;;;2.00;1.08;;;;;;;10.35;65.89;97758.88;6139302;23;20024;-80
2023/01/03 02:58:30;;;;;;;1.08;0.98;;;;;;;10.35;64.91;97771.13;6139271;23;20021;-79
2023/01/03 03:00:59;;;;;;;1.45;1.15;;;;;;;10.34;64.64;97767.66;6126784;23;20665;-80
2023/01/03 03:03:32;;;;;;;2.10;1.10;;;;;;;10.36;65.74;97757.09;6126735;23;20473;-79
2023/01/03 03:06:07;;;;;;;0.80;0.80;;;;;;;10.39;67.85;97759.41;6127838;23;20390;-79
2023/01/03 03:08:35;;;;;;;1.70;1.25;;;;;;;10.41;66.67;97758.28;6126971;23;20045;-79
2023/01/03 03:13:52;;;;;;;1.15;0.90;;;;;;;10.43;68.08;97765.94;6140483;23;20078;-80
2023/01/03 03:16:46;;;;;;;1.23;0.83;;;;;;;10.44;68.02;97765.00;6139592;23;20032;-80
2023/01/03 03:25:11;;;;;;;1.33;1.23;;;;;;;10.50;68.90;97761.78;6127348;23;20022;-79
2023/01/03 03:30:30;;;;;;;1.38;1.27;;;;;;;10.48;66.70;97755.88;6127304;23;20022;-79
2023/01/03 03:33:04;;;;;;;1.05;1.00;;;;;;;10.48;67.58;97755.88;6126861;23;20029;-79
2023/01/03 03:35:41;;;;;;;2.72;0.80;;;;;;;10.50;68.67;97764.38;6126784;23;20414;-79
2023/01/03 03:38:13;;;;;;;1.80;1.17;;;;;;;10.51;67.76;97758.19;6126586;23;20182;-79
2023/01/03 03:46:33;;;;;;;1.35;1.23;;;;;;;10.48;67.57;97753.28;6096993;23;20100;-79
2023/01/03 03:51:55;;;;;;;1.30;1.20;;;;;;;10.48;68.35;97761.91;6126687;23;20026;-79
2023/01/03 03:54:25;;;;;;;2.03;1.08;;;;;;;10.47;67.48;97762.06;6126604;23;20026;-80
2023/01/03 03:57:00;;;;;;;1.67;1.10;;;;;;;10.45;66.93;97764.84;6126355;23;20463;-78
2023/01/03 03:59:30;;;;;;;1.40;1.23;;;;;;;10.43;66.60;97761.56;6126171;23;20065;-79
2023/01/03 04:02:01;;;;;;;4.25;1.08;;;;;;;10.44;67.21;97765.78;6126683;23;20029;-79
2023/01/03 04:04:35;;;;;;;1.10;1.00;;;;;;;10.44;68.13;97765.00;6126853;23;20411;-79
2023/01/03 04:07:04;;;;;;;2.08;1.20;;;;;;;10.45;68.71;97758.78;6126575;23;20116;-79
2023/01/03 04:09:32;;;;;;;1.25;1.15;;;;;;;10.46;68.42;97752.63;6126477;23;20151;-80
2023/01/03 04:11:59;;;;;;;1.85;1.60;;;;;;;10.45;68.25;97759.63;6126669;23;20029;-79
2023/01/03 04:14:27;;;;;;;2.47;1.30;;;;;;;10.45;67.64;97758.78;6126088;23;20362;-79
2023/01/03 04:16:54;;;;;;;1.40;1.30;;;;;;;10.45;67.58;97764.00;6126235;23;20014;-79
2023/01/03 04:19:22;;;;;;;1.35;1.25;;;;;;;10.43;67.76;97768.56;6126062;23;20026;-79
2023/01/03 04:21:49;;;;;;;1.58;1.23;;;;;;;10.41;68.01;97778.34;6126697;23;20223;-79
2023/01/03 04:24:21;;;;;;;1.30;1.20;;;;;;;10.42;68.83;97777.34;6125974;23;20018;-80
2023/01/03 04:26:48;;;;;;;1.60;1.33;;;;;;;10.41;68.61;97786.16;6126009;23;20049;-78
2023/01/03 04:29:16;;;;;;;1.15;1.05;;;;;;;10.42;68.26;97787.78;6125892;23;20017;-80
2023/01/03 04:31:44;;;;;;;2.00;1.40;;;;;;;10.43;69.17;97769.41;6126744;23;20365;-80
2023/01/03 04:34:12;;;;;;;1.40;1.30;;;;;;;10.46;69.00;97786.53;6126155;23;20034;-79
2023/01/03 04:36:39;;;;;;;2.40;1.23;;;;;;;10.46;68.72;97781.31;6126540;23;20105;-80
2023/01/03 04:39:07;;;;;;;2.05;1.45;;;;;;;10.46;69.16;97787.34;6126274;23;20018;-79
2023/01/03 04:41:35;;;;;;;2.25;1.50;;;;;;;10.46;69.29;97789.13;6126024;23;20112;-80
2023/01/03 04:44:03;;;;;;;1.17;1.08;;;;;;;10.48;68.87;97779.38;6126765;23;20022;-80
2023/01/03 04:46:32;;;;;;;1.45;1.35;;;;;;;10.47;68.45;97782.94;6126502;23;20026;-79
2023/01/03 04:49:00;;;;;;;1.55;1.45;;;;;;;10.47;69.03;97780.31;6126087;23;20055;-79
2023/01/03 04:51:28;;;;;;;1.77;1.50;;;;;;;10.47;69.73;97780.31;6126061;23;20520;-79
2023/01/03 04:53:56;;;;;;;1.38;1.20;;;;;;;10.47;68.65;97790.75;6125773;23;20020;-80
2023/01/03 04:56:25;;;;;;;1.63;1.52;;;;;;;10.46;68.08;97786.53;6125800;23;20026;-80
2023/01/03 04:58:54;;;;;;;1.70;1.60;;;;;;;10.45;68.78;97783.09;6125735;23;20022;-79
2023/01/03 05:01:22;;;;;;;1.50;1.40;;;;;;;10.46;68.57;97796.97;6126681;23;20024;-80
2023/01/03 05:03:50;;;;;;;2.60;1.67;;;;;;;10.46;69.38;97796.97;6126249;23;20163;-80
2023/01/03 05:06:18;;;;;;;1.00;1.00;;;;;;;10.45;69.20;97798.75;6127297;23;20529;-79
2023/01/03 05:08:47;;;;;;;1.60;1.45;;;;;;;10.44;69.12;97797.09;6126929;23;20018;-80
2023/01/03 05:11:14;;;;;;;1.70;1.42;;;;;;;10.44;69.28;97799.72;6127097;23;20545;-80
2023/01/03 05:13:42;;;;;;;1.80;1.70;;;;;;;10.43;68.79;97799.84;6126565;23;20097;-80
2023/01/03 05:16:13;;;;;;;2.03;1.60;;;;;;;10.43;68.78;97797.25;6126644;23;20032;-79
2023/01/03 05:18:41;;;;;;;2.58;1.45;;;;;;;10.41;68.83;97801.81;6125424;23;20095;-79
2023/01/03 05:26:44;;;;;;;2.35;1.90;;;;;;;10.34;68.02;97819.84;6125862;23;20390;-79
2023/01/03 05:29:15;;;;;;;2.45;1.80;;;;;;;10.29;68.06;97820.28;6125233;23;20014;-79
2023/01/03 05:31:44;;;;;;;2.20;2.00;;;;;;;10.29;68.15;97822.91;6125995;23;20454;-79
2023/01/03 05:34:11;;;;;;;2.95;1.40;;;;;;;10.27;68.59;97824.78;6125896;23;20553;-79
2023/01/03 05:36:39;;;;;;;2.10;1.70;;;;;;;10.28;68.96;97830.84;6126239;23;20462;-80
2023/01/03 05:39:07;;;;;;;1.42;1.33;;;;;;;10.24;67.83;97827.72;6125444;23;20362;-79
2023/01/03 05:44:19;;;;;;;2.33;1.60;;;;;;;10.12;66.45;97815.84;6142419;23;20029;-79
2023/01/03 05:46:48;;;;;;;3.55;1.63;;;;;;;10.05;66.26;97825.25;6129389;23;20025;-79
2023/01/03 05:49:16;;;;;;;3.38;2.50;;;;;;;10.03;67.32;97822.78;6125515;23;20018;-79
2023/01/03 05:51:43;;;;;;;4.70;2.78;;;;;;;10.06;67.60;97821.69;6126267;23;20022;-80
2023/01/03 05:54:14;;;;;;;5.30;2.17;;;;;;;10.02;66.23;97815.94;6125869;23;20488;-79
2023/01/03 05:56:41;;;;;;;4.00;2.20;;;;;;;9.98;66.14;97809.38;6125966;23;20028;-79
2023/01/03 05:59:10;;;;;;;4.30;1.80;;;;;;;9.93;65.79;97816.84;6125968;23;20042;-79
2023/01/03 06:01:37;;;;;;;9.40;3.05;;;;;;;9.87;66.10;97813.03;6126071;23;20018;-79
2023/01/03 06:04:09;;;;;;;10.10;3.85;;;;;;;9.84;66.42;97833.38;6126053;23;20412;-79
2023/01/03 06:06:37;;;;;;;3.72;2.80;;;;;;;9.80;66.68;97837.22;6127855;23;20018;-81
2023/01/03 06:09:07;;;;;;;6.65;2.50;;;;;;;9.79;66.56;97839.00;6130067;23;20093;-81
2023/01/03 06:11:35;;;;;;;5.68;2.28;;;;;;;9.81;67.65;97839.66;6131134;23;20049;-81
2023/01/03 06:20:05;;;;;;;3.38;2.10;;;;;;;9.99;69.80;97851.91;6146276;23;20026;-81
2023/01/03 06:22:33;;;;;;;2.78;1.95;;;;;;;9.97;69.98;97848.63;6144114;23;20018;-81
2023/01/03 06:25:01;;;;;;;4.38;1.98;;;;;;;9.95;68.67;97845.34;6132547;23;20450;-80
2023/01/03 06:27:29;;;;;;;1.92;1.60;;;;;;;9.89;67.66;97847.56;6128309;23;20033;-81
2023/01/03 06:29:57;;;;;;;3.58;2.30;;;;;;;9.85;66.89;97850.63;6129605;23;20045;-81
2023/01/03 06:32:24;;;;;;;2.63;1.52;;;;;;;9.81;67.02;97863.13;6129601;23;20021;-79
2023/01/03 06:34:52;;;;;;;3.15;1.92;;;;;;;9.81;67.27;97859.69;6126764;23;20022;-80
2023/01/03 06:37:21;;;;;;;5.10;2.15;;;;;;;9.78;66.76;97860.81;6132648;23;20025;-80
2023/01/03 06:39:48;;;;;;;4.70;2.78;;;;;;;9.75;66.52;97855.91;6127870;23;20029;-79
2023/01/03 06:53:20;;;;;;;6.22;2.00;;;;;;;9.72;67.37;97861.38;6125119;23;20021;-79
2023/01/03 06:55:48;;;;;;;4.55;1.95;;;;;;;9.73;67.88;97863.03;6125574;23;20026;-78
2023/01/03 06:58:23;;;;;;;2.78;2.47;;;;;;;9.74;68.11;97864.66;6124269;23;20021;-78
2023/01/03 07:00:52;;;;;;;4.38;2.28;;;;;;;9.75;68.55;97871.53;6125314;23;20028;-79
2023/01/03 07:03:19;;;;;;;3.78;2.08;;;;;;;9.76;68.93;97873.16;6125290;23;20033;-78
2023/01/03 07:05:47;;;;;;;2.45;2.25;;;;;;;9.76;68.65;97870.56;6132610;23;20018;-79
2023/01/03 07:08:14;;;;;;;2.78;2.22;;;;;;;9.75;67.46;97873.31;6129505;23;20022;-79
2023/01/03 07:10:43;;;;;;;2.72;1.98;;;;;;;9.71;68.02;97875.41;6128450;23;20032;-78
2023/01/03 07:15:56;;;;;;;3.40;2.13;;;;;;;9.68;68.28;97886.91;6127179;23;20537;-78
2023/01/03 07:18:25;;;;;;;2.05;1.92;;;;;;;9.69;68.72;97888.56;6126919;23;20021;-79
2023/01/03 07:20:52;;;;;;;2.67;2.47;;;;;;;9.68;67.17;97886.09;6127120;23;20022;-79
2023/01/03 07:23:20;;;;;;;4.15;2.50;;;;;;;9.65;66.74;97882.00;6127143;23;20017;-80
2023/01/03 07:25:49;;;;;;;3.38;2.50;;;;;;;9.61;66.73;97887.63;6127285;23;20493;-79
2023/01/03 07:28:16;;;;;;;3.67;2.63;;;;;;;9.61;67.67;97888.44;6126854;23;20022;-79
2023/01/03 07:30:45;;;;;;;3.25;2.38;;;;;;;9.63;67.77;97894.34;6127302;23;20053;-79
2023/01/03 07:33:15;;;;;;;3.97;2.88;;;;;;;9.64;67.02;97897.75;6126025;23;20077;-79
2023/01/03 07:35:43;;;;;;;3.72;2.17;;;;;;;9.64;67.58;97893.41;6152689;23;20069;-77
2023/01/03 07:38:12;;;;;;;3.25;2.72;;;;;;;9.67;68.28;97900.09;6153757;23;20045;-78
2023/01/03 07:40:40;;;;;;;4.30;2.20;;;;;;;9.68;68.65;97902.53;6143375;23;20073;-78
2023/01/03 07:45:56;;;;;;;2.38;2.15;;;;;;;9.70;67.56;97910.22;6127602;23;20407;-78
2023/01/03 07:48:23;;;;;;;3.72;2.45;;;;;;;9.69;67.42;97908.59;6127269;23;20097;-79
2023/01/03 07:50:56;;;;;;;3.22;2.90;;;;;;;9.70;68.17;97905.00;6126770;23;20036;-79
2023/01/03 07:53:24;;;;;;;2.58;2.38;;;;;;;9.70;68.60;97910.22;6127789;23;20029;-79
2023/01/03 07:55:52;;;;;;;2.45;2.20;;;;;;;9.74;69.21;97910.75;6127860;23;20022;-79
2023/01/03 07:58:20;;;;;;;4.35;2.47;;;;;;;9.76;68.73;97906.22;6127225;23;20022;-79
2023/01/03 08:00:48;;;;;;;2.40;2.20;;;;;;;9.76;68.11;97909.66;6128034;23;20022;-78
2023/01/03 08:03:15;;;;;;;2.70;2.47;;;;;;;9.76;67.37;97914.03;6127151;23;20026;-78
2023/01/03 08:05:43;;;;;;;2.65;2.28;;;;;;;9.72;66.75;97923.13;6127691;23;20406;-79
2023/01/03 08:08:11;;;;;;;3.13;2.50;;;;;;;9.70;66.19;97925.84;6127370;23;20032;-79
2023/01/03 08:13:25;;;;;;;3.38;2.42;;;;;;;9.70;67.83;97937.09;6127381;23;20357;-79
2023/01/03 08:15:55;;;;;;;6.53;2.88;;;;;;;9.74;68.46;97926.41;6127889;23;20044;-79
2023/01/03 08:18:24;;;;;;;5.35;2.83;;;;;;;9.75;68.57;97926.25;6127147;23;20029;-79
2023/01/03 08:20:53;;;;;;;3.28;2.53;;;;;;;9.79;68.94;97924.16;6126597;23;20560;-78
2023/01/03 08:23:21;;;;;;;3.25;2.58;;;;;;;9.81;69.55;97927.44;6126951;23;20481;-81
2023/01/03 08:25:49;;;;;;;2.95;2.75;;;;;;;9.84;69.62;97932.41;6127047;23;20022;-78
2023/01/03 08:28:16;;;;;;;3.28;2.97;;;;;;;9.88;70.00;97938.94;6127533;23;20022;-79
2023/01/03 08:30:49;;;;;;;3.90;3.30;;;;;;;9.93;69.49;97941.94;6127573;23;20450;-80
2023/01/03 08:33:19;;;;;;;3.67;2.80;;;;;;;9.96;70.23;97935.63;6141156;23;20021;-79
2023/01/03 08:35:50;;;;;;;2.90;2.70;;;;;;;10.01;69.50;97938.59;6152924;23;20022;-79
2023/01/03 08:38:21;;;;;;;4.30;3.00;;;;;;;10.05;70.07;97938.16;6152929;23;20040;-79
2023/01/03 08:40:49;;;;;;;2.90;2.70;;;;;;;10.07;68.11;97938.03;6148416;23;20029;-79
2023/01/03 08:43:17;;;;;;;2.85;2.60;;;;;;;10.04;66.29;97940.94;6132824;23;20064;-79
2023/01/03 08:45:47;;;;;;;3.72;2.78;;;;;;;10.00;65.68;97942.19;6132357;23;20018;-78
2023/01/03 08:48:19;;;;;;;5.40;2.88;;;;;;;10.03;65.85;97947.09;6129442;23;20100;-79
2023/01/03 08:50:47;;;;;;;3.85;2.63;;;;;;;10.03;65.30;97940.09;6128135;23;20022;-79
2023/01/03 08:53:15;;;;;;;4.15;2.75;;;;;;;10.06;65.24;97941.63;6140433;23;20029;-80
2023/01/03 08:55:43;;;;;;;2.65;2.45;;;;;;;10.09;66.44;97933.50;6149294;23;20026;-79
2023/01/03 08:58:10;;;;;;;2.13;1.85;;;;;;;10.12;65.68;97941.00;6137091;23;20447;-79
2023/01/03 09:00:38;;;;;;;2.10;1.98;;;;;;;10.15;64.83;97939.91;6129040;23;20104;-79
2023/01/03 09:03:07;;;;;;;3.22;2.38;;;;;;;10.14;64.30;97941.69;6128588;23;20030;-79
2023/01/03 09:05:36;;;;;;;3.85;2.30;;;;;;;10.14;65.02;97948.69;6127300;23;20057;-78
2023/01/03 09:08:04;;;;;;;2.80;2.55;;;;;;;10.14;64.30;97949.50;6126934;23;20014;-79
2023/01/03 09:10:32;;;;;;;2.60;2.40;;;;;;;10.16;64.73;97962.41;6127463;23;20026;-80
2023/01/03 09:13:01;;;;;;;3.97;2.97;;;;;;;10.19;64.81;97970.78;6127642;23;20025;-79
2023/01/03 09:15:28;;;;;;;4.00;2.53;;;;;;;10.22;64.41;97970.47;6126964;23;20021;-79
2023/01/03 09:17:56;;;;;;;4.45;3.20;;;;;;;10.23;65.69;97964.31;6126947;23;20026;-80
2023/01/03 09:20:25;;;;;;;2.85;2.65;;;;;;;10.27;65.52;97957.81;6126912;23;20014;-79
2023/01/03 09:22:52;;;;;;;4.53;2.90;;;;;;;10.32;65.83;97962.63;6127514;23;20053;-79
2023/01/03 09:25:20;;;;;;;2.20;2.00;;;;;;;10.37;66.64;97968.22;6127460;23;20034;-79
2023/01/03 09:27:48;;;;;;;3.30;2.50;;;;;;;10.42;67.43;97967.78;6126858;23;20022;-79
2023/01/03 09:30:18;;;;;;;2.90;2.35;;;;;;;10.47;65.90;97969.00;6126913;23;20362;-79
2023/01/03 09:32:49;;;;;;;2.53;2.30;;;;;;;10.48;65.25;97965.41;6127130;23;20029;-79
2023/01/03 09:35:17;;;;;;;2.78;1.83;;;;;;;10.51;66.11;97972.91;6127233;23;20028;-79
2023/01/03 09:37:48;;;;;;;2.65;1.88;;;;;;;10.51;63.58;97972.13;6127180;23;20022;-79
2023/01/03 09:40:16;;;;;;;2.30;2.10;;;;;;;10.48;63.68;97969.81;6127635;23;20022;-79
2023/01/03 09:45:33;;;;;;;3.50;2.08;;;;;;;10.49;63.25;97968.81;6127090;23;20458;-79
2023/01/03 09:48:03;;;;;;;3.10;1.88;;;;;;;10.50;63.26;97962.66;6127247;23;20022;-79
2023/01/03 09:50:34;;;;;;;2.38;1.92;;;;;;;10.51;62.56;97966.88;6127235;23;20275;-79
2023/01/03 10:05:35;;;;;;;2.30;2.08;;;;;;;10.68;63.93;97967.88;6127118;23;20026;-79
2023/01/03 10:08:29;;;;;;;2.00;1.67;;;;;;;10.71;63.44;97968.41;6126500;23;20382;-79
2023/01/03 10:11:03;;;;;;;5.00;1.83;;;;;;;10.70;63.01;97979.81;6145506;23;20036;-79
2023/01/03 10:13:43;;;;;;;2.20;1.92;;;;;;;10.74;63.73;97979.53;6152549;23;20029;-78
2023/01/03 10:16:16;;;;;;;4.13;1.70;;;;;;;10.79;64.53;97982.50;6141597;23;20101;-79
2023/01/03 10:19:03;;;;;;;1.98;1.42;;;;;;;10.83;63.48;97981.25;6126116;23;20022;-79
2023/01/03 10:21:38;;;;;;;4.47;1.40;;;;;;;10.88;62.59;97979.00;6126606;23;20025;-79
2023/01/03 10:24:18;;;;;;;1.90;1.42;;;;;;;10.91;61.53;97983.91;6125799;23;20029;-80
2023/01/03 10:26:47;;;;;;;2.97;2.17;;;;;;;10.93;61.44;97971.53;6126085;23;20018;-79
2023/01/03 10:29:17;;;;;;;4.50;1.98;;;;;;;10.95;62.81;97974.81;6126129;23;20025;-79
2023/01/03 10:32:03;;;;;;;3.20;1.73;;;;;;;11.01;63.05;97966.38;6125987;23;20025;-79
2023/01/03 10:34:30;;;;;;;2.95;1.50;;;;;;;11.08;62.23;97964.78;6126560;23;20018;-79
2023/01/03 10:37:15;;;;;;;4.80;1.75;;;;;;;11.14;63.32;97969.41;6097569;23;20034;-79
2023/01/03 10:39:44;;;;;;;2.10;1.90;;;;;;;11.21;61.80;97968.81;6068069;23;20146;-79
2023/01/03 10:42:17;;;;;;;1.85;1.52;;;;;;;11.24;62.25;97974.56;6068513;23;20078;-79
2023/01/03 10:44:57;;;;;;;2.15;2.03;;;;;;;11.29;61.19;97961.84;6068617;23;20034;-79
2023/01/03 10:47:26;;;;;;;3.38;2.33;;;;;;;11.33;60.53;97962.38;6068500;23;20023;-79
2023/01/03 10:49:59;;;;;;;3.47;2.53;;;;;;;11.34;59.97;97964.00;6068225;23;20023;-79
2023/01/03 10:52:31;;;;;;;3.10;1.73;;;;;;;11.38;60.12;97969.75;6068428;23;20027;-79
2023/01/03 10:55:03;;;;;;;3.10;1.55;;;;;;;11.42;61.09;97965.88;6068528;23;20392;-79
2023/01/03 10:57:42;;;;;;;2.00;1.50;;;;;;;11.48;60.41;97960.84;6068384;23;20027;-79
2023/01/03 11:00:22;;;;;;;3.60;1.70;;;;;;;11.55;62.35;97951.41;6068934;23;20029;-79
2023/01/03 11:02:50;;;;;;;3.90;1.55;;;;;;;11.65;60.92;97951.28;6068084;23;20106;-81
2023/01/03 11:05:20;;;;;;;2.28;1.65;;;;;;;11.72;60.54;97956.75;6067984;23;20383;-79
2023/01/03 11:07:54;;;;;;;1.35;1.20;;;;;;;11.78;59.73;97948.25;6067385;23;20023;-79
2023/01/03 11:10:24;;;;;;;1.80;1.45;;;;;;;11.88;61.04;97958.63;6067841;23;20026;-79
2023/01/03 11:12:52;;;;;;;3.78;1.77;;;;;;;11.93;59.83;97957.19;6068061;23;20363;-79
2023/01/03 11:15:31;;;;;;;1.48;1.35;;;;;;;12.00;59.68;97953.94;6067845;23;20490;-79
2023/01/03 11:18:15;;;;;;;3.63;1.42;;;;;;;12.09;59.95;97942.53;6067986;23;20023;-79
2023/01/03 11:20:49;;;;;;;1.98;1.20;;;;;;;12.21;58.49;97936.03;6068216;23;20073;-79
2023/01/03 11:23:25;;;;;;;2.63;1.58;;;;;;;12.32;57.91;97937.53;6068175;23;20026;-79
2023/01/03 11:26:03;;;;;;;2.08;1.63;;;;;;;12.44;58.74;97938.88;6069758;23;20025;-79
2023/01/03 11:29:02;;;;;;;2.42;1.65;;;;;;;12.56;58.20;97934.16;6069511;23;20023;-80
2023/01/03 11:31:39;;;;;;;3.50;1.20;;;;;;;12.67;56.79;97928.59;6075820;23;20070;-79
2023/01/03 11:34:23;;;;;;;2.60;1.48;;;;;;;12.81;58.06;97932.38;6085073;23;20027;-79
2023/01/03 11:36:59;;;;;;;1.77;1.30;;;;;;;12.88;56.18;97928.13;6087574;23;20078;-79
2023/01/03 11:39:51;;;;;;;1.92;1.02;;;;;;;12.98;56.39;97928.78;6079792;23;20034;-79
2023/01/03 11:42:36;;;;;;;1.17;1.08;;;;;;;13.09;55.90;97925.00;6071751;23;20029;-79
2023/01/03 11:45:26;;;;;;;2.22;1.15;;;;;;;13.24;56.08;97921.72;6069508;23;20018;-79
2023/01/03 11:48:05;;;;;;;3.17;1.50;;;;;;;13.34;54.83;97912.72;6069032;23;20467;-79
2023/01/03 11:50:49;;;;;;;1.92;1.50;;;;;;;13.44;54.24;97911.72;6069780;23;20023;-79
2023/01/03 11:53:28;;;;;;;2.45;1.67;;;;;;;13.54;54.71;97910.56;6069659;23;20031;-80
2023/01/03 11:56:07;;;;;;;1.40;1.25;;;;;;;13.63;53.90;97905.28;6073193;23;20033;-80
2023/01/03 11:58:56;;;;;;;2.80;1.55;;;;;;;13.70;53.60;97911.47;6092055;23;20030;-80
2023/01/03 12:01:40;;;;;;;3.22;1.30;;;;;;;13.78;54.10;97907.03;6084612;23;20411;-79
2023/01/03 12:04:27;;;;;;;2.88;1.35;;;;;;;13.88;53.34;97914.69;6071655;23;20055;-79
2023/01/03 12:07:13;;;;;;;2.15;1.65;;;;;;;13.99;55.30;97914.34;6081107;23;20183;-80
2023/01/03 12:10:09;;;;;;;2.45;1.50;;;;;;;14.12;54.47;97915.56;6094394;23;20027;-79
2023/01/03 12:13:14;;;;;;;3.22;1.85;;;;;;;14.20;52.44;97918.16;6084069;23;20078;-79
2023/01/03 12:15:50;;;;;;;2.30;1.50;;;;;;;14.27;52.58;97919.09;6073141;23;20536;-80
2023/01/03 12:18:28;;;;;;;2.17;1.60;;;;;;;14.35;51.88;97921.69;6072158;23;20041;-80
2023/01/03 12:21:03;;;;;;;2.83;1.50;;;;;;;14.37;50.88;97919.69;6075682;23;20033;-80
2023/01/03 12:23:41;;;;;;;2.83;1.20;;;;;;;14.30;51.97;97918.75;6074822;23;20061;-80
2023/01/03 12:26:12;;;;;;;1.30;1.17;;;;;;;14.30;52.52;97921.38;6069589;23;20101;-80
2023/01/03 12:28:41;;;;;;;1.20;1.10;;;;;;;14.29;51.42;97919.75;6092999;23;20007;-80
2023/01/03 12:31:22;;;;;;;0.90;0.88;;;;;;;14.26;51.79;97912.22;6093343;23;20023;-80
2023/01/03 12:34:05;;;;;;;1.75;1.00;;;;;;;14.27;52.04;97911.22;6081473;23;20023;-81
2023/01/03 12:36:41;;;;;;;1.45;1.00;;;;;;;14.24;50.15;97906.31;6072836;23;20015;-80
2023/01/03 12:39:28;;;;;;;1.63;1.13;;;;;;;14.18;50.65;97907.81;6070088;23;20022;-80
2023/01/03 12:42:05;;;;;;;3.83;0.90;;;;;;;14.13;50.68;97904.91;6071565;23;20337;-81
2023/01/03 12:44:38;;;;;;;1.02;0.80;;;;;;;14.09;51.60;97905.44;6070271;23;20106;-81
2023/01/03 12:47:17;;;;;;;2.75;1.27;;;;;;;14.04;50.03;97905.09;6070720;23;20033;-80
2023/01/03 12:49:50;;;;;;;1.83;0.98;;;;;;;14.04;51.82;97907.72;6070589;23;20029;-80
2023/01/03 12:52:21;;;;;;;2.40;1.48;;;;;;;14.00;51.67;97913.34;6070354;23;20067;-80
2023/01/03 12:54:55;;;;;;;2.25;1.33;;;;;;;13.95;50.25;97909.56;6069790;23;20056;-80
2023/01/03 12:57:55;;;;;;;3.05;1.30;;;;;;;13.88;50.28;97904.19;6069051;23;20328;-79
2023/01/03 13:00:39;;;;;;;1.85;1.35;;;;;;;13.79;50.01;97897.34;6069080;23;20132;-80
2023/01/03 13:03:18;;;;;;;2.10;1.75;;;;;;;13.70;51.92;97896.56;6068923;23;20022;-79
2023/01/03 13:05:49;;;;;;;2.50;1.27;;;;;;;13.62;51.44;97891.34;6068891;23;20359;-80
2023/01/03 13:08:26;;;;;;;5.10;2.17;;;;;;;13.56;52.17;97900.72;6068266;23;20058;-80
2023/01/03 13:10:56;;;;;;;4.50;2.00;;;;;;;13.50;52.60;97892.72;6068455;23;20558;-80
2023/01/03 13:13:24;;;;;;;2.03;1.15;;;;;;;13.46;52.29;97892.22;6068634;23;20023;-80